Terminal Aerodrome Forecast
Issued by NWS Blacksburg, VA

Home | Current Version | Previous Version | Text Only | Print | Product List | Glossary On
Versions: 1 2 3 4 5 6 7 8 9 10 11 12 13 14 15 16 17 18 19 20 21 22 23 24 25 26 27
000
FTUS41 KRNK 260520
TAFDAN
TAF
KDAN 260520Z 2606/2706 17004KT P6SM OVC080
     FM261100 07004KT 6SM -RA OVC050
     FM261300 04004KT 4SM -RA BR OVC018
     FM261800 35007KT P6SM OVC022
     FM270200 32014G24KT P6SM OVC035=

USA.gov is the U.S. government's official web portal to all federal, state and local government web resources and services.